Detroit, Michigan
Traffic Map
Current Weather Conditions
Detroit, Michigan
Scattered Clouds
Scattered Clouds
64°
Feels Like: 64°
Wind Chill: 64° Ceiling: Unl
Heat Index: 64° Visibility: 15mi
Dew Point: 28° Wind: 14mph
Humidity: 26% Direction: 310° (NW)
Pressure: 30in Gusts: 0mph
Raw Report DataCYQG 192100Z 31012KT 15SM SCT280 18/M02 A3000 RMK CI4 SLP164 DENSITY ALT 900FT
Traffic Incident Summary
Active as of:
Severity:
Category:
InformationThere was an issue retrieving the traffic information for this location. Please try a different location or try again shortly.
Advertisements
Track Severe Weather on mobile